sensor_id;sensor_type;location;lat;lon;timestamp;P1;durP1;ratioP1;P2;durP2;ratioP2
49758;SDS011;70329;45.524;10.194;2024-01-30T00:02:40;90.90;;;33.58;;
49758;SDS011;70329;45.524;10.194;2024-01-30T00:05:08;100.35;;;32.17;;
49758;SDS011;70329;45.524;10.194;2024-01-30T00:10:03;98.20;;;30.98;;
49758;SDS011;70329;45.524;10.194;2024-01-30T00:12:31;92.38;;;32.67;;
49758;SDS011;70329;45.524;10.194;2024-01-30T00:14:58;105.55;;;35.35;;
49758;SDS011;70329;45.524;10.194;2024-01-30T00:17:24;100.30;;;33.75;;
49758;SDS011;70329;45.524;10.194;2024-01-30T00:22:18;96.40;;;33.45;;
49758;SDS011;70329;45.524;10.194;2024-01-30T00:27:12;96.47;;;32.55;;
49758;SDS011;70329;45.524;10.194;2024-01-30T00:29:39;79.35;;;31.65;;
49758;SDS011;70329;45.524;10.194;2024-01-30T00:32:06;93.95;;;33.65;;
49758;SDS011;70329;45.524;10.194;2024-01-30T00:34:33;92.05;;;33.85;;
49758;SDS011;70329;45.524;10.194;2024-01-30T00:36:59;87.88;;;31.92;;
49758;SDS011;70329;45.524;10.194;2024-01-30T00:41:53;84.32;;;31.38;;
49758;SDS011;70329;45.524;10.194;2024-01-30T00:44:21;90.07;;;32.42;;
49758;SDS011;70329;45.524;10.194;2024-01-30T00:46:48;80.50;;;33.35;;
49758;SDS011;70329;45.524;10.194;2024-01-30T00:49:14;83.82;;;31.65;;
49758;SDS011;70329;45.524;10.194;2024-01-30T00:51:41;82.93;;;31.60;;
49758;SDS011;70329;45.524;10.194;2024-01-30T00:56:34;81.13;;;31.38;;
49758;SDS011;70329;45.524;10.194;2024-01-30T00:59:01;77.40;;;32.63;;
49758;SDS011;70329;45.524;10.194;2024-01-30T01:03:55;76.60;;;30.70;;
49758;SDS011;70329;45.524;10.194;2024-01-30T01:06:23;78.70;;;32.42;;
49758;SDS011;70329;45.524;10.194;2024-01-30T01:08:50;76.32;;;30.98;;
49758;SDS011;70329;45.524;10.194;2024-01-30T01:11:16;76.40;;;31.65;;
49758;SDS011;70329;45.524;10.194;2024-01-30T01:13:43;75.22;;;31.83;;
49758;SDS011;70329;45.524;10.194;2024-01-30T01:18:38;68.45;;;28.67;;
49758;SDS011;70329;45.524;10.194;2024-01-30T01:21:04;74.03;;;29.45;;
49758;SDS011;70329;45.524;10.194;2024-01-30T01:23:31;73.45;;;29.83;;
49758;SDS011;70329;45.524;10.194;2024-01-30T01:25:58;74.80;;;31.10;;
49758;SDS011;70329;45.524;10.194;2024-01-30T01:28:26;69.80;;;30.48;;
49758;SDS011;70329;45.524;10.194;2024-01-30T01:30:53;76.53;;;31.00;;
49758;SDS011;70329;45.524;10.194;2024-01-30T01:33:24;73.43;;;31.35;;
49758;SDS011;70329;45.524;10.194;2024-01-30T01:35:52;68.95;;;29.92;;
49758;SDS011;70329;45.524;10.194;2024-01-30T01:38:18;61.55;;;29.20;;
49758;SDS011;70329;45.524;10.194;2024-01-30T01:40:45;82.53;;;31.90;;
49758;SDS011;70329;45.524;10.194;2024-01-30T01:43:12;75.13;;;32.53;;
49758;SDS011;70329;45.524;10.194;2024-01-30T01:45:38;81.30;;;31.85;;
49758;SDS011;70329;45.524;10.194;2024-01-30T01:48:05;80.57;;;33.17;;
49758;SDS011;70329;45.524;10.194;2024-01-30T01:50:33;83.72;;;32.38;;
49758;SDS011;70329;45.524;10.194;2024-01-30T01:53:01;80.00;;;33.05;;
49758;SDS011;70329;45.524;10.194;2024-01-30T01:55:29;84.75;;;33.33;;
49758;SDS011;70329;45.524;10.194;2024-01-30T01:57:57;80.75;;;32.55;;
49758;SDS011;70329;45.524;10.194;2024-01-30T02:00:24;99.97;;;35.10;;
49758;SDS011;70329;45.524;10.194;2024-01-30T02:07:45;84.57;;;30.30;;
49758;SDS011;70329;45.524;10.194;2024-01-30T02:10:14;80.35;;;30.83;;
49758;SDS011;70329;45.524;10.194;2024-01-30T02:12:40;83.50;;;31.85;;
49758;SDS011;70329;45.524;10.194;2024-01-30T02:15:07;81.72;;;31.58;;
49758;SDS011;70329;45.524;10.194;2024-01-30T02:17:34;90.97;;;31.60;;
49758;SDS011;70329;45.524;10.194;2024-01-30T02:22:29;85.75;;;32.53;;
49758;SDS011;70329;45.524;10.194;2024-01-30T02:24:57;72.70;;;30.00;;
49758;SDS011;70329;45.524;10.194;2024-01-30T02:27:24;82.78;;;32.58;;
49758;SDS011;70329;45.524;10.194;2024-01-30T02:29:50;76.45;;;30.35;;
49758;SDS011;70329;45.524;10.194;2024-01-30T02:32:17;83.03;;;30.35;;
49758;SDS011;70329;45.524;10.194;2024-01-30T02:34:44;81.10;;;31.05;;
49758;SDS011;70329;45.524;10.194;2024-01-30T02:39:39;78.47;;;31.38;;
49758;SDS011;70329;45.524;10.194;2024-01-30T02:42:05;69.68;;;28.98;;
49758;SDS011;70329;45.524;10.194;2024-01-30T02:46:58;71.90;;;29.48;;
49758;SDS011;70329;45.524;10.194;2024-01-30T02:49:25;72.80;;;29.80;;
49758;SDS011;70329;45.524;10.194;2024-01-30T02:51:53;75.07;;;30.63;;
49758;SDS011;70329;45.524;10.194;2024-01-30T02:54:21;79.22;;;31.42;;
49758;SDS011;70329;45.524;10.194;2024-01-30T02:56:49;75.55;;;30.30;;
49758;SDS011;70329;45.524;10.194;2024-01-30T02:59:16;72.43;;;30.45;;
49758;SDS011;70329;45.524;10.194;2024-01-30T03:01:43;67.93;;;29.40;;
49758;SDS011;70329;45.524;10.194;2024-01-30T03:04:10;67.13;;;28.45;;
49758;SDS011;70329;45.524;10.194;2024-01-30T03:06:37;75.22;;;31.35;;
49758;SDS011;70329;45.524;10.194;2024-01-30T03:09:03;72.50;;;30.35;;
49758;SDS011;70329;45.524;10.194;2024-01-30T03:11:30;73.30;;;30.40;;
49758;SDS011;70329;45.524;10.194;2024-01-30T03:13:58;73.90;;;29.48;;
49758;SDS011;70329;45.524;10.194;2024-01-30T03:16:25;66.72;;;29.25;;
49758;SDS011;70329;45.524;10.194;2024-01-30T03:18:51;70.68;;;29.73;;
49758;SDS011;70329;45.524;10.194;2024-01-30T03:21:18;71.07;;;29.80;;
49758;SDS011;70329;45.524;10.194;2024-01-30T03:23:45;74.00;;;30.10;;
49758;SDS011;70329;45.524;10.194;2024-01-30T03:26:12;66.55;;;28.88;;
49758;SDS011;70329;45.524;10.194;2024-01-30T03:28:40;73.63;;;30.40;;
49758;SDS011;70329;45.524;10.194;2024-01-30T03:31:08;76.47;;;32.17;;
49758;SDS011;70329;45.524;10.194;2024-01-30T03:33:36;72.10;;;30.65;;
49758;SDS011;70329;45.524;10.194;2024-01-30T03:36:03;66.50;;;28.48;;
49758;SDS011;70329;45.524;10.194;2024-01-30T03:38:30;69.88;;;29.42;;
49758;SDS011;70329;45.524;10.194;2024-01-30T03:40:58;71.03;;;30.00;;
49758;SDS011;70329;45.524;10.194;2024-01-30T03:43:25;69.68;;;30.40;;
49758;SDS011;70329;45.524;10.194;2024-01-30T03:45:51;74.57;;;30.00;;
49758;SDS011;70329;45.524;10.194;2024-01-30T03:48:20;68.85;;;27.95;;
49758;SDS011;70329;45.524;10.194;2024-01-30T03:50:47;74.95;;;31.75;;
49758;SDS011;70329;45.524;10.194;2024-01-30T03:53:14;72.97;;;30.33;;
49758;SDS011;70329;45.524;10.194;2024-01-30T03:58:07;72.35;;;29.95;;
49758;SDS011;70329;45.524;10.194;2024-01-30T04:03:01;64.22;;;27.60;;
49758;SDS011;70329;45.524;10.194;2024-01-30T04:07:56;75.95;;;28.77;;
49758;SDS011;70329;45.524;10.194;2024-01-30T04:10:23;70.13;;;29.20;;
49758;SDS011;70329;45.524;10.194;2024-01-30T04:12:49;66.40;;;31.30;;
49758;SDS011;70329;45.524;10.194;2024-01-30T04:15:16;76.10;;;31.30;;
49758;SDS011;70329;45.524;10.194;2024-01-30T04:17:43;67.13;;;30.85;;
49758;SDS011;70329;45.524;10.194;2024-01-30T04:22:41;73.32;;;30.40;;
49758;SDS011;70329;45.524;10.194;2024-01-30T04:25:08;71.53;;;30.85;;
49758;SDS011;70329;45.524;10.194;2024-01-30T04:27:34;80.75;;;31.77;;
49758;SDS011;70329;45.524;10.194;2024-01-30T04:32:29;74.38;;;30.00;;
49758;SDS011;70329;45.524;10.194;2024-01-30T04:34:55;74.00;;;31.42;;
49758;SDS011;70329;45.524;10.194;2024-01-30T04:37:22;83.53;;;33.60;;
49758;SDS011;70329;45.524;10.194;2024-01-30T04:39:51;78.93;;;32.17;;
49758;SDS011;70329;45.524;10.194;2024-01-30T04:42:17;73.20;;;31.48;;
49758;SDS011;70329;45.524;10.194;2024-01-30T04:47:11;69.05;;;30.95;;
49758;SDS011;70329;45.524;10.194;2024-01-30T04:52:04;73.30;;;32.03;;
49758;SDS011;70329;45.524;10.194;2024-01-30T04:54:31;76.55;;;32.47;;
49758;SDS011;70329;45.524;10.194;2024-01-30T04:57:03;72.97;;;29.83;;
49758;SDS011;70329;45.524;10.194;2024-01-30T04:59:33;71.32;;;31.20;;
49758;SDS011;70329;45.524;10.194;2024-01-30T05:04:26;75.53;;;30.75;;
49758;SDS011;70329;45.524;10.194;2024-01-30T05:06:53;76.03;;;29.92;;
49758;SDS011;70329;45.524;10.194;2024-01-30T05:09:20;70.72;;;29.98;;
49758;SDS011;70329;45.524;10.194;2024-01-30T05:11:47;76.03;;;30.70;;
49758;SDS011;70329;45.524;10.194;2024-01-30T05:16:43;70.57;;;29.95;;
49758;SDS011;70329;45.524;10.194;2024-01-30T05:19:12;72.72;;;29.73;;
49758;SDS011;70329;45.524;10.194;2024-01-30T05:21:39;78.13;;;31.48;;
49758;SDS011;70329;45.524;10.194;2024-01-30T05:26:32;73.18;;;29.02;;
49758;SDS011;70329;45.524;10.194;2024-01-30T05:28:59;73.32;;;29.27;;
49758;SDS011;70329;45.524;10.194;2024-01-30T05:31:27;77.70;;;30.42;;
49758;SDS011;70329;45.524;10.194;2024-01-30T05:33:54;73.25;;;30.73;;
49758;SDS011;70329;45.524;10.194;2024-01-30T05:36:22;73.68;;;29.63;;
49758;SDS011;70329;45.524;10.194;2024-01-30T05:38:53;83.15;;;32.30;;
49758;SDS011;70329;45.524;10.194;2024-01-30T05:41:21;76.20;;;32.70;;
49758;SDS011;70329;45.524;10.194;2024-01-30T05:43:47;82.57;;;31.08;;
49758;SDS011;70329;45.524;10.194;2024-01-30T05:46:14;75.20;;;28.88;;
49758;SDS011;70329;45.524;10.194;2024-01-30T05:48:42;73.70;;;29.55;;
49758;SDS011;70329;45.524;10.194;2024-01-30T05:51:09;71.05;;;29.52;;
49758;SDS011;70329;45.524;10.194;2024-01-30T05:53:37;66.63;;;26.80;;
49758;SDS011;70329;45.524;10.194;2024-01-30T05:56:07;71.57;;;27.15;;
49758;SDS011;70329;45.524;10.194;2024-01-30T05:58:36;61.63;;;26.85;;
49758;SDS011;70329;45.524;10.194;2024-01-30T06:03:33;59.03;;;27.17;;
49758;SDS011;70329;45.524;10.194;2024-01-30T06:06:01;58.85;;;25.83;;
49758;SDS011;70329;45.524;10.194;2024-01-30T06:08:28;57.55;;;25.42;;
49758;SDS011;70329;45.524;10.194;2024-01-30T06:10:55;66.80;;;27.92;;
49758;SDS011;70329;45.524;10.194;2024-01-30T06:13:23;56.40;;;26.02;;
49758;SDS011;70329;45.524;10.194;2024-01-30T06:15:50;62.78;;;26.88;;
49758;SDS011;70329;45.524;10.194;2024-01-30T06:18:17;64.05;;;27.65;;
49758;SDS011;70329;45.524;10.194;2024-01-30T06:20:45;63.47;;;26.63;;
49758;SDS011;70329;45.524;10.194;2024-01-30T06:23:13;55.30;;;26.35;;
49758;SDS011;70329;45.524;10.194;2024-01-30T06:25:40;55.25;;;25.95;;
49758;SDS011;70329;45.524;10.194;2024-01-30T06:30:33;58.28;;;26.58;;
49758;SDS011;70329;45.524;10.194;2024-01-30T06:33:00;55.83;;;26.55;;
49758;SDS011;70329;45.524;10.194;2024-01-30T06:35:26;67.57;;;27.02;;
49758;SDS011;70329;45.524;10.194;2024-01-30T06:37:54;54.47;;;25.85;;
49758;SDS011;70329;45.524;10.194;2024-01-30T06:40:22;59.10;;;25.70;;
49758;SDS011;70329;45.524;10.194;2024-01-30T06:42:49;62.40;;;28.15;;
49758;SDS011;70329;45.524;10.194;2024-01-30T06:45:16;61.97;;;27.15;;
49758;SDS011;70329;45.524;10.194;2024-01-30T06:47:43;64.32;;;26.95;;
49758;SDS011;70329;45.524;10.194;2024-01-30T06:50:10;58.97;;;26.05;;
49758;SDS011;70329;45.524;10.194;2024-01-30T06:52:36;58.80;;;26.88;;
49758;SDS011;70329;45.524;10.194;2024-01-30T06:55:03;59.97;;;27.67;;
49758;SDS011;70329;45.524;10.194;2024-01-30T06:57:31;59.97;;;28.00;;
49758;SDS011;70329;45.524;10.194;2024-01-30T06:59:58;61.83;;;27.98;;
49758;SDS011;70329;45.524;10.194;2024-01-30T07:04:50;59.75;;;25.98;;
49758;SDS011;70329;45.524;10.194;2024-01-30T07:07:17;62.78;;;27.20;;
49758;SDS011;70329;45.524;10.194;2024-01-30T07:09:43;64.18;;;27.95;;
49758;SDS011;70329;45.524;10.194;2024-01-30T07:12:10;64.15;;;28.85;;
49758;SDS011;70329;45.524;10.194;2024-01-30T07:14:39;61.55;;;26.80;;
49758;SDS011;70329;45.524;10.194;2024-01-30T07:17:05;72.03;;;30.52;;
49758;SDS011;70329;45.524;10.194;2024-01-30T07:21:59;78.50;;;32.50;;
49758;SDS011;70329;45.524;10.194;2024-01-30T07:24:26;82.18;;;35.35;;
49758;SDS011;70329;45.524;10.194;2024-01-30T07:26:52;70.18;;;31.95;;
49758;SDS011;70329;45.524;10.194;2024-01-30T07:29:19;78.82;;;32.35;;
49758;SDS011;70329;45.524;10.194;2024-01-30T07:31:48;74.40;;;33.25;;
49758;SDS011;70329;45.524;10.194;2024-01-30T07:34:15;70.03;;;31.80;;
49758;SDS011;70329;45.524;10.194;2024-01-30T07:39:08;81.38;;;33.33;;
49758;SDS011;70329;45.524;10.194;2024-01-30T07:41:35;76.95;;;30.65;;
49758;SDS011;70329;45.524;10.194;2024-01-30T07:44:02;73.38;;;30.20;;
49758;SDS011;70329;45.524;10.194;2024-01-30T07:46:30;75.55;;;31.15;;
49758;SDS011;70329;45.524;10.194;2024-01-30T07:49:02;92.95;;;37.05;;
49758;SDS011;70329;45.524;10.194;2024-01-30T07:51:30;93.82;;;34.92;;
49758;SDS011;70329;45.524;10.194;2024-01-30T07:53:59;87.45;;;34.00;;
49758;SDS011;70329;45.524;10.194;2024-01-30T07:56:28;86.20;;;32.90;;
49758;SDS011;70329;45.524;10.194;2024-01-30T07:58:55;95.88;;;35.10;;
49758;SDS011;70329;45.524;10.194;2024-01-30T08:01:21;74.45;;;31.77;;
49758;SDS011;70329;45.524;10.194;2024-01-30T08:03:48;78.90;;;32.50;;
49758;SDS011;70329;45.524;10.194;2024-01-30T08:06:16;73.93;;;29.75;;
49758;SDS011;70329;45.524;10.194;2024-01-30T08:08:43;78.95;;;32.67;;
49758;SDS011;70329;45.524;10.194;2024-01-30T08:11:10;85.05;;;32.95;;
49758;SDS011;70329;45.524;10.194;2024-01-30T08:13:38;81.75;;;33.80;;
49758;SDS011;70329;45.524;10.194;2024-01-30T08:16:05;72.88;;;33.55;;
49758;SDS011;70329;45.524;10.194;2024-01-30T08:18:32;80.07;;;32.15;;
49758;SDS011;70329;45.524;10.194;2024-01-30T08:20:58;75.60;;;31.60;;
49758;SDS011;70329;45.524;10.194;2024-01-30T08:23:26;79.63;;;34.03;;
49758;SDS011;70329;45.524;10.194;2024-01-30T08:25:54;78.32;;;34.65;;
49758;SDS011;70329;45.524;10.194;2024-01-30T08:28:24;79.38;;;31.55;;
49758;SDS011;70329;45.524;10.194;2024-01-30T08:30:53;73.00;;;30.70;;
49758;SDS011;70329;45.524;10.194;2024-01-30T08:33:20;74.43;;;31.75;;
49758;SDS011;70329;45.524;10.194;2024-01-30T08:35:49;74.05;;;31.05;;
49758;SDS011;70329;45.524;10.194;2024-01-30T08:38:20;77.82;;;32.15;;
49758;SDS011;70329;45.524;10.194;2024-01-30T08:40:48;74.38;;;31.25;;
49758;SDS011;70329;45.524;10.194;2024-01-30T08:43:14;71.72;;;30.92;;
49758;SDS011;70329;45.524;10.194;2024-01-30T08:45:41;69.88;;;30.92;;
49758;SDS011;70329;45.524;10.194;2024-01-30T08:48:08;85.93;;;33.05;;
49758;SDS011;70329;45.524;10.194;2024-01-30T08:50:36;73.15;;;30.90;;
49758;SDS011;70329;45.524;10.194;2024-01-30T08:53:03;76.82;;;32.58;;
49758;SDS011;70329;45.524;10.194;2024-01-30T08:55:30;83.72;;;32.85;;
49758;SDS011;70329;45.524;10.194;2024-01-30T08:57:58;78.53;;;33.50;;
49758;SDS011;70329;45.524;10.194;2024-01-30T09:00:24;77.63;;;31.90;;
49758;SDS011;70329;45.524;10.194;2024-01-30T09:02:51;73.32;;;31.80;;
49758;SDS011;70329;45.524;10.194;2024-01-30T09:05:18;68.75;;;30.40;;
49758;SDS011;70329;45.524;10.194;2024-01-30T09:07:44;74.43;;;30.67;;
49758;SDS011;70329;45.524;10.194;2024-01-30T09:10:11;67.60;;;29.58;;
49758;SDS011;70329;45.524;10.194;2024-01-30T09:12:38;69.68;;;30.60;;
49758;SDS011;70329;45.524;10.194;2024-01-30T09:15:06;71.70;;;31.27;;
49758;SDS011;70329;45.524;10.194;2024-01-30T09:17:35;70.55;;;29.45;;
49758;SDS011;70329;45.524;10.194;2024-01-30T09:20:01;64.97;;;29.73;;
49758;SDS011;70329;45.524;10.194;2024-01-30T09:22:28;62.58;;;29.38;;
49758;SDS011;70329;45.524;10.194;2024-01-30T09:24:55;67.65;;;31.58;;
49758;SDS011;70329;45.524;10.194;2024-01-30T09:27:22;67.93;;;30.55;;
49758;SDS011;70329;45.524;10.194;2024-01-30T09:29:48;72.32;;;32.13;;
49758;SDS011;70329;45.524;10.194;2024-01-30T09:32:16;74.45;;;32.50;;
49758;SDS011;70329;45.524;10.194;2024-01-30T09:34:43;69.70;;;30.33;;
49758;SDS011;70329;45.524;10.194;2024-01-30T09:37:12;78.20;;;31.30;;
49758;SDS011;70329;45.524;10.194;2024-01-30T09:39:44;72.68;;;32.42;;
49758;SDS011;70329;45.524;10.194;2024-01-30T09:42:11;67.15;;;29.98;;
49758;SDS011;70329;45.524;10.194;2024-01-30T09:44:45;69.13;;;28.83;;
49758;SDS011;70329;45.524;10.194;2024-01-30T09:47:18;69.80;;;31.27;;
49758;SDS011;70329;45.524;10.194;2024-01-30T09:49:45;74.03;;;31.95;;
49758;SDS011;70329;45.524;10.194;2024-01-30T09:52:12;72.68;;;31.30;;
49758;SDS011;70329;45.524;10.194;2024-01-30T09:54:40;72.60;;;30.70;;
49758;SDS011;70329;45.524;10.194;2024-01-30T09:57:07;75.50;;;33.17;;
49758;SDS011;70329;45.524;10.194;2024-01-30T10:02:01;72.05;;;32.22;;
49758;SDS011;70329;45.524;10.194;2024-01-30T10:04:30;70.18;;;31.63;;
49758;SDS011;70329;45.524;10.194;2024-01-30T10:06:57;82.35;;;32.53;;
49758;SDS011;70329;45.524;10.194;2024-01-30T10:09:27;75.15;;;32.97;;
49758;SDS011;70329;45.524;10.194;2024-01-30T10:11:55;77.03;;;32.08;;
49758;SDS011;70329;45.524;10.194;2024-01-30T10:14:23;72.75;;;32.05;;
49758;SDS011;70329;45.524;10.194;2024-01-30T10:16:50;62.45;;;30.40;;
49758;SDS011;70329;45.524;10.194;2024-01-30T10:19:18;72.97;;;30.80;;
49758;SDS011;70329;45.524;10.194;2024-01-30T10:21:48;66.63;;;30.00;;
49758;SDS011;70329;45.524;10.194;2024-01-30T10:24:15;60.88;;;28.77;;
49758;SDS011;70329;45.524;10.194;2024-01-30T10:26:43;69.20;;;30.52;;
49758;SDS011;70329;45.524;10.194;2024-01-30T10:29:10;55.63;;;28.40;;
49758;SDS011;70329;45.524;10.194;2024-01-30T10:31:36;67.95;;;29.35;;
49758;SDS011;70329;45.524;10.194;2024-01-30T10:36:29;58.83;;;26.77;;
49758;SDS011;70329;45.524;10.194;2024-01-30T10:39:04;56.00;;;26.40;;
49758;SDS011;70329;45.524;10.194;2024-01-30T10:41:35;60.67;;;28.08;;
49758;SDS011;70329;45.524;10.194;2024-01-30T10:44:09;58.97;;;26.40;;
49758;SDS011;70329;45.524;10.194;2024-01-30T10:46:37;61.22;;;26.35;;
49758;SDS011;70329;45.524;10.194;2024-01-30T10:49:04;52.63;;;25.60;;
49758;SDS011;70329;45.524;10.194;2024-01-30T10:51:32;55.72;;;25.85;;
49758;SDS011;70329;45.524;10.194;2024-01-30T10:54:00;49.50;;;24.38;;
49758;SDS011;70329;45.524;10.194;2024-01-30T10:56:29;51.83;;;24.35;;
49758;SDS011;70329;45.524;10.194;2024-01-30T10:58:58;55.50;;;24.27;;
49758;SDS011;70329;45.524;10.194;2024-01-30T11:01:25;55.78;;;26.42;;
49758;SDS011;70329;45.524;10.194;2024-01-30T11:03:53;52.45;;;25.38;;
49758;SDS011;70329;45.524;10.194;2024-01-30T11:06:22;58.10;;;26.10;;
49758;SDS011;70329;45.524;10.194;2024-01-30T11:09:00;56.38;;;27.55;;
49758;SDS011;70329;45.524;10.194;2024-01-30T11:11:29;60.30;;;26.17;;
49758;SDS011;70329;45.524;10.194;2024-01-30T11:14:00;59.42;;;28.23;;
49758;SDS011;70329;45.524;10.194;2024-01-30T11:16:30;68.30;;;29.75;;
49758;SDS011;70329;45.524;10.194;2024-01-30T11:19:00;64.93;;;28.90;;
49758;SDS011;70329;45.524;10.194;2024-01-30T11:21:28;63.95;;;29.42;;
49758;SDS011;70329;45.524;10.194;2024-01-30T11:23:55;68.05;;;30.20;;
49758;SDS011;70329;45.524;10.194;2024-01-30T11:26:23;68.53;;;30.00;;
49758;SDS011;70329;45.524;10.194;2024-01-30T11:28:56;61.42;;;28.27;;
49758;SDS011;70329;45.524;10.194;2024-01-30T11:31:24;61.35;;;27.77;;
49758;SDS011;70329;45.524;10.194;2024-01-30T11:33:52;63.05;;;28.17;;
49758;SDS011;70329;45.524;10.194;2024-01-30T11:36:22;59.58;;;27.13;;
49758;SDS011;70329;45.524;10.194;2024-01-30T11:38:53;56.58;;;25.33;;
49758;SDS011;70329;45.524;10.194;2024-01-30T11:41:21;55.88;;;26.83;;
49758;SDS011;70329;45.524;10.194;2024-01-30T11:43:53;64.13;;;28.33;;
49758;SDS011;70329;45.524;10.194;2024-01-30T11:46:22;61.65;;;26.70;;
49758;SDS011;70329;45.524;10.194;2024-01-30T11:48:52;54.33;;;26.10;;
49758;SDS011;70329;45.524;10.194;2024-01-30T11:51:18;56.05;;;26.05;;
49758;SDS011;70329;45.524;10.194;2024-01-30T11:53:49;55.20;;;25.02;;
49758;SDS011;70329;45.524;10.194;2024-01-30T11:56:16;57.35;;;27.00;;
49758;SDS011;70329;45.524;10.194;2024-01-30T11:58:46;60.55;;;26.48;;
49758;SDS011;70329;45.524;10.194;2024-01-30T12:01:14;56.58;;;26.60;;
49758;SDS011;70329;45.524;10.194;2024-01-30T12:03:50;58.67;;;26.63;;
49758;SDS011;70329;45.524;10.194;2024-01-30T12:06:17;56.63;;;26.55;;
49758;SDS011;70329;45.524;10.194;2024-01-30T12:08:55;63.83;;;27.83;;
49758;SDS011;70329;45.524;10.194;2024-01-30T12:11:26;56.70;;;26.45;;
49758;SDS011;70329;45.524;10.194;2024-01-30T12:13:55;62.42;;;26.33;;
49758;SDS011;70329;45.524;10.194;2024-01-30T12:16:23;61.58;;;27.25;;
49758;SDS011;70329;45.524;10.194;2024-01-30T12:19:00;59.22;;;26.02;;
49758;SDS011;70329;45.524;10.194;2024-01-30T12:21:27;57.03;;;25.90;;
49758;SDS011;70329;45.524;10.194;2024-01-30T12:23:56;54.92;;;25.52;;
49758;SDS011;70329;45.524;10.194;2024-01-30T12:26:24;54.83;;;25.27;;
49758;SDS011;70329;45.524;10.194;2024-01-30T12:28:56;52.35;;;24.77;;
49758;SDS011;70329;45.524;10.194;2024-01-30T12:31:27;53.05;;;24.25;;
49758;SDS011;70329;45.524;10.194;2024-01-30T12:33:54;53.22;;;24.67;;
49758;SDS011;70329;45.524;10.194;2024-01-30T12:36:24;54.38;;;25.23;;
49758;SDS011;70329;45.524;10.194;2024-01-30T12:38:59;55.30;;;25.38;;
49758;SDS011;70329;45.524;10.194;2024-01-30T12:41:31;57.05;;;25.42;;
49758;SDS011;70329;45.524;10.194;2024-01-30T12:44:00;54.03;;;25.52;;
49758;SDS011;70329;45.524;10.194;2024-01-30T12:46:31;60.20;;;26.77;;
49758;SDS011;70329;45.524;10.194;2024-01-30T12:49:01;60.03;;;27.27;;
49758;SDS011;70329;45.524;10.194;2024-01-30T12:51:35;62.67;;;27.80;;
49758;SDS011;70329;45.524;10.194;2024-01-30T12:54:06;59.50;;;26.92;;
49758;SDS011;70329;45.524;10.194;2024-01-30T12:56:36;65.25;;;28.33;;
49758;SDS011;70329;45.524;10.194;2024-01-30T12:59:04;72.50;;;32.67;;
49758;SDS011;70329;45.524;10.194;2024-01-30T13:01:32;68.68;;;29.63;;
49758;SDS011;70329;45.524;10.194;2024-01-30T13:04:00;69.50;;;29.55;;
49758;SDS011;70329;45.524;10.194;2024-01-30T13:06:26;63.78;;;28.85;;
49758;SDS011;70329;45.524;10.194;2024-01-30T13:09:20;56.42;;;25.67;;
49758;SDS011;70329;45.524;10.194;2024-01-30T13:11:50;70.25;;;30.55;;
49758;SDS011;70329;45.524;10.194;2024-01-30T13:14:21;77.55;;;31.67;;
49758;SDS011;70329;45.524;10.194;2024-01-30T13:16:51;72.53;;;30.73;;
49758;SDS011;70329;45.524;10.194;2024-01-30T13:19:19;63.15;;;28.10;;
49758;SDS011;70329;45.524;10.194;2024-01-30T13:21:49;65.18;;;27.33;;
49758;SDS011;70329;45.524;10.194;2024-01-30T13:24:18;68.03;;;29.67;;
49758;SDS011;70329;45.524;10.194;2024-01-30T13:26:47;60.83;;;27.83;;
49758;SDS011;70329;45.524;10.194;2024-01-30T13:29:18;61.78;;;26.67;;
49758;SDS011;70329;45.524;10.194;2024-01-30T13:31:48;52.83;;;24.27;;
49758;SDS011;70329;45.524;10.194;2024-01-30T13:34:16;55.42;;;23.05;;
49758;SDS011;70329;45.524;10.194;2024-01-30T13:36:44;42.80;;;20.10;;
49758;SDS011;70329;45.524;10.194;2024-01-30T13:39:12;46.60;;;20.10;;
49758;SDS011;70329;45.524;10.194;2024-01-30T13:41:43;47.90;;;19.70;;
49758;SDS011;70329;45.524;10.194;2024-01-30T13:44:10;52.67;;;22.83;;
49758;SDS011;70329;45.524;10.194;2024-01-30T13:46:37;55.35;;;23.98;;
49758;SDS011;70329;45.524;10.194;2024-01-30T13:49:06;57.25;;;25.75;;
49758;SDS011;70329;45.524;10.194;2024-01-30T13:51:34;55.72;;;25.63;;
49758;SDS011;70329;45.524;10.194;2024-01-30T13:54:01;59.88;;;27.45;;
49758;SDS011;70329;45.524;10.194;2024-01-30T13:56:28;56.38;;;25.58;;
49758;SDS011;70329;45.524;10.194;2024-01-30T13:58:56;58.83;;;26.40;;
49758;SDS011;70329;45.524;10.194;2024-01-30T14:01:26;59.55;;;26.83;;
49758;SDS011;70329;45.524;10.194;2024-01-30T14:03:54;54.20;;;26.70;;
49758;SDS011;70329;45.524;10.194;2024-01-30T14:06:22;68.50;;;29.42;;
49758;SDS011;70329;45.524;10.194;2024-01-30T14:08:49;62.90;;;27.50;;
49758;SDS011;70329;45.524;10.194;2024-01-30T14:11:15;59.63;;;27.70;;
49758;SDS011;70329;45.524;10.194;2024-01-30T14:16:10;54.58;;;25.25;;
49758;SDS011;70329;45.524;10.194;2024-01-30T14:18:38;58.42;;;25.15;;
49758;SDS011;70329;45.524;10.194;2024-01-30T14:21:06;60.33;;;27.48;;
49758;SDS011;70329;45.524;10.194;2024-01-30T14:23:34;53.45;;;24.38;;
49758;SDS011;70329;45.524;10.194;2024-01-30T14:26:01;58.83;;;25.05;;
49758;SDS011;70329;45.524;10.194;2024-01-30T14:30:55;60.67;;;26.85;;
49758;SDS011;70329;45.524;10.194;2024-01-30T14:33:23;60.75;;;27.55;;
49758;SDS011;70329;45.524;10.194;2024-01-30T14:35:51;61.47;;;28.08;;
49758;SDS011;70329;45.524;10.194;2024-01-30T14:40:46;59.97;;;27.25;;
49758;SDS011;70329;45.524;10.194;2024-01-30T14:43:13;60.92;;;26.42;;
49758;SDS011;70329;45.524;10.194;2024-01-30T14:45:40;62.40;;;27.35;;
49758;SDS011;70329;45.524;10.194;2024-01-30T14:48:07;64.88;;;28.38;;
49758;SDS011;70329;45.524;10.194;2024-01-30T14:50:36;63.88;;;28.55;;
49758;SDS011;70329;45.524;10.194;2024-01-30T14:53:02;62.95;;;27.48;;
49758;SDS011;70329;45.524;10.194;2024-01-30T14:55:30;62.90;;;28.25;;
49758;SDS011;70329;45.524;10.194;2024-01-30T14:57:58;64.68;;;27.40;;
49758;SDS011;70329;45.524;10.194;2024-01-30T15:00:27;66.68;;;27.10;;
49758;SDS011;70329;45.524;10.194;2024-01-30T15:02:54;54.50;;;25.40;;
49758;SDS011;70329;45.524;10.194;2024-01-30T15:05:20;58.00;;;26.45;;
49758;SDS011;70329;45.524;10.194;2024-01-30T15:07:49;59.15;;;25.77;;
49758;SDS011;70329;45.524;10.194;2024-01-30T15:10:17;64.95;;;27.70;;
49758;SDS011;70329;45.524;10.194;2024-01-30T15:12:44;63.10;;;28.05;;
49758;SDS011;70329;45.524;10.194;2024-01-30T15:15:12;64.75;;;28.45;;
49758;SDS011;70329;45.524;10.194;2024-01-30T15:17:39;66.85;;;28.10;;
49758;SDS011;70329;45.524;10.194;2024-01-30T15:20:06;62.35;;;26.75;;
49758;SDS011;70329;45.524;10.194;2024-01-30T15:22:33;59.80;;;27.58;;
49758;SDS011;70329;45.524;10.194;2024-01-30T15:25:01;71.70;;;30.25;;
49758;SDS011;70329;45.524;10.194;2024-01-30T15:27:29;67.57;;;30.20;;
49758;SDS011;70329;45.524;10.194;2024-01-30T15:29:56;69.28;;;29.85;;
49758;SDS011;70329;45.524;10.194;2024-01-30T15:32:24;64.30;;;27.75;;